Terminal Aerodrome Forecast
Issued by NWS

Home | Current Version | Previous Version | Text Only | Print | Product List | Glossary On
Versions: 1 2 3 4 5 6 7 8 9 10 11 12 13 14 15 16 17
000
FTUS43 KIND 021100
TAFBMG
TAF
KBMG 021129Z 0212/0312 34004KT P6SM BKN200
     FM021700 VRB05KT P6SM FEW025 BKN150
     FM022300 09005KT P6SM OVC100
     FM030900 12008KT 4SM -FZRAPL SCT015 OVC050
      AMD LTD TO CLD VIS AND WIND TIL 021400=

USA.gov is the U.S. government's official web portal to all federal, state and local government web resources and services.